Time;durP1;ratioP1;P1;durP2;ratioP2;P2;SDS_P1;SDS_P2;PMS_P1;PMS_P2;Temp;Humidity;BMP_temperature;BMP_pressure;BME280_temperature;BME280_humidity;BME280_pressure;Samples;Min_cycle;Max_cycle;Signal;HPM_P1;HPM_P2
2022/01/26 00:07:13;;;;;;;96.95;30.52;;;;;;;;;;5071893;28;20139;-66
2022/01/26 00:09:39;;;;;;;99.30;30.50;;;;;;;;;;5054780;28;20076;-67
2022/01/26 00:12:05;;;;;;;106.35;30.65;;;;;;;;;;5054654;28;20083;-67
2022/01/26 00:14:31;;;;;;;100.95;30.65;;;;;;;;;;5054778;28;20045;-66
2022/01/26 00:16:59;;;;;;;99.50;30.92;;;;;;;;;;5072703;28;20047;-67
2022/01/26 00:19:33;;;;;;;95.68;29.15;;;;;;;;;;5071601;28;20045;-66
2022/01/26 00:21:59;;;;;;;96.20;28.85;;;;;;;;;;5054613;28;20120;-67
2022/01/26 00:24:51;;;;;;;96.05;29.15;;;;;;;;;;5071229;28;20045;-67
2022/01/26 00:27:30;;;;;;;99.65;29.25;;;;;;;;;;5072496;28;20059;-67
2022/01/26 00:31:12;;;;;;;94.38;28.42;;;;;;;;;;5071323;28;20060;-67
2022/01/26 00:38:38;;;;;;;92.32;27.75;;;;;;;;;;5014241;28;20053;-67
2022/01/26 00:41:08;;;;;;;99.53;30.50;;;;;;;;;;5013754;28;20092;-67
2022/01/26 00:43:34;;;;;;;95.82;28.50;;;;;;;;;;5013713;28;20180;-67
2022/01/26 00:46:01;;;;;;;100.07;29.85;;;;;;;;;;5013719;28;20049;-67
2022/01/26 00:48:30;;;;;;;99.65;31.00;;;;;;;;;;5030674;28;20060;-67
2022/01/26 00:51:00;;;;;;;104.72;30.58;;;;;;;;;;5013742;28;20557;-67
2022/01/26 00:53:32;;;;;;;107.50;31.10;;;;;;;;;;5030341;28;20088;-67
2022/01/26 00:55:58;;;;;;;94.65;28.70;;;;;;;;;;5013891;28;20081;-67
2022/01/26 00:58:25;;;;;;;101.22;30.45;;;;;;;;;;5013880;28;20042;-67
2022/01/26 01:00:51;;;;;;;98.07;29.73;;;;;;;;;;5014065;28;20136;-67
2022/01/26 01:03:18;;;;;;;105.78;30.15;;;;;;;;;;5013706;28;20093;-67
2022/01/26 01:05:53;;;;;;;99.60;29.65;;;;;;;;;;5014251;28;20132;-66
2022/01/26 01:08:22;;;;;;;104.13;30.95;;;;;;;;;;5033807;28;20050;-66
2022/01/26 01:10:50;;;;;;;96.05;29.55;;;;;;;;;;5033690;28;20057;-67
2022/01/26 01:13:20;;;;;;;109.80;30.83;;;;;;;;;;5068577;28;20064;-67
2022/01/26 01:15:47;;;;;;;110.45;31.75;;;;;;;;;;5074560;28;20098;-66
2022/01/26 01:18:21;;;;;;;96.30;28.42;;;;;;;;;;5074286;28;20384;-67
2022/01/26 01:31:40;;;;;;;96.20;29.05;;;;;;;;;;5074349;28;20048;-67
2022/01/26 01:34:06;;;;;;;101.75;29.70;;;;;;;;;;5075247;28;20461;-67
2022/01/26 01:36:33;;;;;;;104.45;30.65;;;;;;;;;;5075347;28;20041;-66
2022/01/26 01:38:59;;;;;;;102.10;29.88;;;;;;;;;;5073914;28;20503;-66
2022/01/26 01:41:25;;;;;;;106.38;30.25;;;;;;;;;;5075009;28;20123;-66
2022/01/26 01:43:51;;;;;;;105.25;30.50;;;;;;;;;;5074892;28;20049;-66
2022/01/26 01:46:17;;;;;;;100.93;29.88;;;;;;;;;;5075272;28;20037;-66
2022/01/26 01:48:43;;;;;;;101.25;30.60;;;;;;;;;;5057123;28;20045;-67
2022/01/26 01:51:12;;;;;;;95.03;30.23;;;;;;;;;;5075118;28;20505;-67
2022/01/26 01:53:43;;;;;;;98.60;29.08;;;;;;;;;;5075034;28;20048;-66
2022/01/26 01:56:10;;;;;;;101.45;29.52;;;;;;;;;;5073379;28;20146;-67
2022/01/26 01:58:37;;;;;;;98.63;29.63;;;;;;;;;;5073520;28;20074;-66
2022/01/26 02:01:04;;;;;;;98.53;29.98;;;;;;;;;;5056560;28;20051;-66
2022/01/26 02:03:30;;;;;;;103.35;29.70;;;;;;;;;;5073791;28;20040;-66
2022/01/26 02:05:56;;;;;;;103.45;30.90;;;;;;;;;;5057061;28;20502;-66
2022/01/26 02:08:22;;;;;;;106.93;29.25;;;;;;;;;;5073491;28;20072;-66
2022/01/26 02:10:48;;;;;;;112.28;29.45;;;;;;;;;;5074522;28;20047;-66
2022/01/26 02:13:40;;;;;;;95.70;27.48;;;;;;;;;;5056747;28;20044;-67
2022/01/26 02:56:51;;;;;;;91.32;26.88;;;;;;;;;;5031915;28;20053;-67
2022/01/26 02:59:49;;;;;;;100.75;28.77;;;;;;;;;;5015115;28;20080;-67
2022/01/26 03:05:15;;;;;;;102.45;28.85;;;;;;;;;;5015200;28;20152;-67
2022/01/26 03:07:52;;;;;;;103.90;28.63;;;;;;;;;;5018406;28;20127;-67
2022/01/26 03:10:23;;;;;;;104.85;29.92;;;;;;;;;;5073628;28;20117;-67
2022/01/26 03:12:58;;;;;;;106.18;28.58;;;;;;;;;;5055683;28;20052;-67
2022/01/26 03:15:33;;;;;;;106.25;29.55;;;;;;;;;;5072255;28;20059;-67
2022/01/26 03:20:35;;;;;;;107.57;29.50;;;;;;;;;;5075480;28;20048;-67
2022/01/26 03:28:44;;;;;;;105.45;29.20;;;;;;;;;;5073163;28;20513;-67
2022/01/26 03:34:11;;;;;;;102.50;28.23;;;;;;;;;;5073366;28;20045;-67
2022/01/26 03:36:53;;;;;;;94.45;26.33;;;;;;;;;;5055219;28;20052;-67
2022/01/26 03:39:22;;;;;;;97.80;27.98;;;;;;;;;;5071886;28;20052;-67
2022/01/26 03:41:52;;;;;;;99.75;26.48;;;;;;;;;;5071726;28;20131;-67
2022/01/26 03:44:18;;;;;;;91.88;27.85;;;;;;;;;;5073332;28;20048;-67
2022/01/26 03:46:45;;;;;;;101.78;28.63;;;;;;;;;;5071778;28;20101;-67
2022/01/26 03:49:12;;;;;;;93.18;27.42;;;;;;;;;;5071975;28;20052;-67
2022/01/26 03:51:40;;;;;;;96.85;27.08;;;;;;;;;;5073298;28;20037;-67
2022/01/26 03:54:06;;;;;;;103.60;27.38;;;;;;;;;;5072415;28;20079;-67
2022/01/26 03:56:32;;;;;;;106.40;28.42;;;;;;;;;;5072191;28;20051;-67
2022/01/26 03:58:58;;;;;;;117.40;30.58;;;;;;;;;;5055313;28;20123;-67
2022/01/26 04:01:24;;;;;;;101.25;28.05;;;;;;;;;;5071863;28;20566;-67
2022/01/26 04:03:50;;;;;;;106.82;28.77;;;;;;;;;;5072084;28;20123;-67
2022/01/26 04:06:17;;;;;;;101.80;27.52;;;;;;;;;;5073644;28;20406;-67
2022/01/26 04:08:44;;;;;;;100.00;27.40;;;;;;;;;;5074914;28;20044;-67
2022/01/26 04:13:50;;;;;;;100.88;27.63;;;;;;;;;;5071574;28;20106;-67
2022/01/26 04:16:16;;;;;;;99.88;27.35;;;;;;;;;;5071493;28;20082;-67
2022/01/26 04:18:42;;;;;;;97.70;26.13;;;;;;;;;;5071551;28;20087;-67
2022/01/26 04:21:38;;;;;;;103.68;28.05;;;;;;;;;;5073241;28;20100;-67
2022/01/26 04:24:12;;;;;;;105.25;27.98;;;;;;;;;;5071513;28;20048;-66
2022/01/26 04:27:34;;;;;;;91.55;24.70;;;;;;;;;;5073219;28;20094;-66
2022/01/26 04:29:30;;;;;;;98.55;26.13;;;;;;;;;;5060928;28;20105;-67
2022/01/26 04:31:58;;;;;;;97.95;25.67;;;;;;;;;;5071742;28;20063;-67
2022/01/26 04:34:24;;;;;;;101.82;26.52;;;;;;;;;;5072509;28;20051;-67
2022/01/26 04:39:21;;;;;;;101.88;26.35;;;;;;;;;;5071143;28;20056;-66
2022/01/26 04:42:09;;;;;;;96.88;25.70;;;;;;;;;;5073859;28;20426;-66
2022/01/26 04:44:42;;;;;;;94.57;24.63;;;;;;;;;;5074924;28;20087;-66
2022/01/26 04:47:08;;;;;;;98.97;25.75;;;;;;;;;;5074985;28;20131;-66
2022/01/26 04:49:34;;;;;;;101.05;25.58;;;;;;;;;;5075135;28;20076;-66
2022/01/26 04:52:00;;;;;;;98.93;25.98;;;;;;;;;;5076333;28;20048;-66
2022/01/26 04:54:26;;;;;;;89.32;24.70;;;;;;;;;;5076869;28;20087;-66
2022/01/26 04:56:52;;;;;;;88.30;25.23;;;;;;;;;;5076169;28;20037;-66
2022/01/26 04:59:18;;;;;;;89.43;24.27;;;;;;;;;;5074742;28;20566;-66
2022/01/26 05:01:44;;;;;;;90.50;24.42;;;;;;;;;;5074790;28;20048;-66
2022/01/26 05:04:10;;;;;;;92.20;24.20;;;;;;;;;;5074664;28;20132;-66
2022/01/26 05:06:36;;;;;;;90.20;25.25;;;;;;;;;;5076221;28;20432;-66
2022/01/26 05:09:03;;;;;;;94.55;23.77;;;;;;;;;;5074760;28;20228;-66
2022/01/26 05:11:38;;;;;;;88.13;23.83;;;;;;;;;;5074520;28;20076;-67
2022/01/26 05:14:05;;;;;;;84.35;23.08;;;;;;;;;;5074471;28;20045;-66
2022/01/26 05:16:31;;;;;;;87.97;24.85;;;;;;;;;;5075988;28;20043;-66
2022/01/26 05:18:58;;;;;;;83.65;23.02;;;;;;;;;;5074639;28;20051;-67
2022/01/26 05:21:24;;;;;;;89.60;23.73;;;;;;;;;;5074851;28;20053;-67
2022/01/26 05:23:51;;;;;;;93.47;24.27;;;;;;;;;;5075905;28;20491;-66
2022/01/26 05:26:17;;;;;;;82.43;23.23;;;;;;;;;;5076107;28;20040;-66
2022/01/26 05:28:43;;;;;;;81.82;22.92;;;;;;;;;;5057439;28;20098;-67
2022/01/26 05:31:09;;;;;;;101.65;25.40;;;;;;;;;;5074188;28;20044;-66
2022/01/26 05:33:35;;;;;;;92.45;24.23;;;;;;;;;;5075468;28;20062;-66
2022/01/26 05:36:01;;;;;;;89.47;24.10;;;;;;;;;;5074092;28;20123;-67
2022/01/26 05:38:27;;;;;;;87.82;24.75;;;;;;;;;;5074106;28;20071;-66
2022/01/26 05:40:55;;;;;;;89.88;25.73;;;;;;;;;;5073858;28;20045;-66
2022/01/26 05:43:21;;;;;;;97.57;24.77;;;;;;;;;;5075478;28;20059;-67
2022/01/26 05:45:51;;;;;;;93.07;25.30;;;;;;;;;;5075180;28;20095;-66
2022/01/26 05:48:17;;;;;;;91.70;23.45;;;;;;;;;;5057413;28;20059;-66
2022/01/26 05:50:51;;;;;;;87.10;24.02;;;;;;;;;;5057033;28;20513;-66
2022/01/26 05:53:20;;;;;;;96.28;24.88;;;;;;;;;;5073350;28;20052;-66
2022/01/26 05:55:46;;;;;;;111.00;26.05;;;;;;;;;;5074949;28;20223;-67
2022/01/26 05:58:12;;;;;;;82.63;23.10;;;;;;;;;;5057059;28;20072;-67
2022/01/26 06:00:38;;;;;;;92.55;24.23;;;;;;;;;;5074939;28;20173;-66
2022/01/26 06:03:04;;;;;;;84.68;23.90;;;;;;;;;;5074859;28;20049;-66
2022/01/26 06:05:30;;;;;;;86.50;24.95;;;;;;;;;;5073619;28;20452;-66
2022/01/26 06:07:56;;;;;;;85.45;22.73;;;;;;;;;;5074683;28;20109;-67
2022/01/26 06:10:22;;;;;;;85.82;23.10;;;;;;;;;;5074403;28;20048;-68
2022/01/26 06:12:48;;;;;;;79.47;21.85;;;;;;;;;;5074751;28;20083;-66
2022/01/26 06:15:15;;;;;;;82.18;22.52;;;;;;;;;;5074649;28;20047;-66
2022/01/26 06:17:41;;;;;;;86.72;23.25;;;;;;;;;;5074462;28;20048;-67
2022/01/26 06:20:07;;;;;;;83.72;21.02;;;;;;;;;;5074497;28;20128;-66
2022/01/26 06:22:33;;;;;;;87.88;23.88;;;;;;;;;;5074422;28;20457;-67
2022/01/26 06:25:05;;;;;;;86.80;21.92;;;;;;;;;;5074727;28;20048;-67
2022/01/26 06:27:31;;;;;;;87.65;22.92;;;;;;;;;;5073123;28;20083;-67
2022/01/26 06:29:57;;;;;;;90.30;23.08;;;;;;;;;;5073403;28;20063;-67
2022/01/26 06:32:23;;;;;;;84.10;22.27;;;;;;;;;;5073191;28;20048;-67
2022/01/26 06:34:49;;;;;;;81.05;22.15;;;;;;;;;;5074560;28;20055;-67
2022/01/26 06:37:16;;;;;;;87.53;23.17;;;;;;;;;;5073319;28;20040;-67
2022/01/26 06:39:42;;;;;;;86.28;22.38;;;;;;;;;;5073858;28;20056;-67
2022/01/26 06:42:13;;;;;;;82.32;22.50;;;;;;;;;;5055941;28;20136;-67
2022/01/26 06:44:50;;;;;;;90.88;22.75;;;;;;;;;;5074361;28;20048;-67
2022/01/26 06:47:33;;;;;;;86.18;22.70;;;;;;;;;;5072696;28;20048;-66
2022/01/26 06:49:59;;;;;;;92.68;23.60;;;;;;;;;;5073707;28;20051;-66
2022/01/26 06:52:25;;;;;;;77.45;21.00;;;;;;;;;;5072960;28;20040;-66
2022/01/26 06:54:50;;;;;;;84.85;22.05;;;;;;;;;;5055772;28;20445;-66
2022/01/26 06:57:16;;;;;;;87.57;22.17;;;;;;;;;;5055954;28;20055;-66
2022/01/26 06:59:42;;;;;;;93.63;23.23;;;;;;;;;;5055713;28;20048;-66
2022/01/26 07:02:08;;;;;;;86.03;22.27;;;;;;;;;;5074119;28;20040;-66
2022/01/26 07:04:34;;;;;;;73.55;21.60;;;;;;;;;;5071316;28;20170;-66
2022/01/26 07:07:00;;;;;;;92.75;23.30;;;;;;;;;;5055672;28;20542;-66
2022/01/26 07:09:26;;;;;;;88.05;22.20;;;;;;;;;;5073366;28;20072;-67
2022/01/26 07:11:52;;;;;;;68.55;18.95;;;;;;;;;;5072284;28;20040;-67
2022/01/26 07:19:49;;;;;;;77.43;20.67;;;;;;;;;;5073412;28;20051;-66
2022/01/26 07:20:53;;;;;;;75.28;20.27;;;;;;;;;;5073111;28;20044;-67
2022/01/26 07:22:52;;;;;;;77.10;21.73;;;;;;;;;;5072346;28;20052;-66
2022/01/26 07:25:18;;;;;;;76.88;20.85;;;;;;;;;;5071991;28;20041;-67
2022/01/26 07:27:45;;;;;;;73.97;19.48;;;;;;;;;;5073520;28;20045;-67
2022/01/26 07:30:11;;;;;;;74.97;20.33;;;;;;;;;;5072250;28;20060;-66
2022/01/26 07:32:38;;;;;;;107.40;26.92;;;;;;;;;;5055237;28;20410;-67
2022/01/26 07:35:04;;;;;;;66.38;20.08;;;;;;;;;;5072132;28;20045;-67
2022/01/26 07:37:31;;;;;;;79.60;21.13;;;;;;;;;;5055462;28;20048;-67
2022/01/26 07:40:04;;;;;;;74.60;19.52;;;;;;;;;;5054989;28;20080;-67
2022/01/26 07:42:30;;;;;;;73.30;19.17;;;;;;;;;;5054970;28;20052;-66
2022/01/26 07:44:56;;;;;;;63.65;18.08;;;;;;;;;;5071716;28;20413;-67
2022/01/26 07:47:23;;;;;;;76.32;19.10;;;;;;;;;;5073228;28;20051;-67
2022/01/26 07:49:52;;;;;;;71.68;19.70;;;;;;;;;;5073167;28;20053;-67
2022/01/26 07:52:18;;;;;;;90.82;24.02;;;;;;;;;;5072936;28;20097;-67
2022/01/26 07:54:45;;;;;;;88.78;22.50;;;;;;;;;;5072981;28;20466;-67
2022/01/26 07:57:12;;;;;;;85.28;22.85;;;;;;;;;;5071692;28;20095;-67
2022/01/26 07:59:38;;;;;;;79.30;22.55;;;;;;;;;;5073013;28;20043;-66
2022/01/26 08:02:04;;;;;;;80.03;22.80;;;;;;;;;;5071888;28;20048;-66
2022/01/26 08:04:30;;;;;;;74.68;23.00;;;;;;;;;;5071529;28;20051;-66
2022/01/26 08:06:56;;;;;;;80.82;23.65;;;;;;;;;;5071570;28;20040;-67
2022/01/26 08:09:22;;;;;;;83.45;24.40;;;;;;;;;;5071834;28;20045;-67
2022/01/26 08:11:48;;;;;;;90.20;25.00;;;;;;;;;;5073080;28;20059;-67
2022/01/26 08:14:14;;;;;;;89.75;25.85;;;;;;;;;;5071645;28;20078;-66
2022/01/26 08:16:40;;;;;;;96.70;25.98;;;;;;;;;;5074357;28;20094;-67
2022/01/26 08:19:07;;;;;;;93.13;26.05;;;;;;;;;;5075780;28;20048;-67
2022/01/26 08:21:33;;;;;;;111.35;29.48;;;;;;;;;;5075365;28;20052;-67
2022/01/26 08:24:03;;;;;;;87.90;26.98;;;;;;;;;;5076671;28;20040;-67
2022/01/26 08:26:40;;;;;;;90.07;27.58;;;;;;;;;;5076922;28;20045;-67
2022/01/26 08:29:13;;;;;;;94.25;27.13;;;;;;;;;;5058944;28;20051;-67
2022/01/26 08:31:39;;;;;;;94.45;27.33;;;;;;;;;;5076663;28;20067;-67
2022/01/26 08:34:05;;;;;;;95.85;29.25;;;;;;;;;;5058650;28;20125;-67
2022/01/26 08:36:31;;;;;;;95.40;30.40;;;;;;;;;;5075445;28;20080;-66
2022/01/26 08:38:57;;;;;;;110.32;31.80;;;;;;;;;;5076521;28;20110;-67
2022/01/26 08:41:23;;;;;;;102.68;29.40;;;;;;;;;;5075142;28;20043;-67
2022/01/26 08:43:49;;;;;;;102.57;30.55;;;;;;;;;;5075983;28;20507;-67
2022/01/26 08:46:18;;;;;;;102.45;29.58;;;;;;;;;;5076722;28;20431;-66
2022/01/26 08:48:44;;;;;;;107.57;31.85;;;;;;;;;;5075019;28;20559;-67
2022/01/26 08:51:10;;;;;;;105.65;32.63;;;;;;;;;;5074910;28;20045;-67
2022/01/26 08:53:36;;;;;;;107.18;31.02;;;;;;;;;;5058265;28;20054;-66
2022/01/26 08:56:02;;;;;;;107.32;32.35;;;;;;;;;;5074896;28;20405;-67
2022/01/26 08:58:28;;;;;;;114.53;33.85;;;;;;;;;;5076163;28;20131;-67
2022/01/26 09:00:55;;;;;;;120.00;35.78;;;;;;;;;;5076228;28;20087;-67
2022/01/26 09:03:21;;;;;;;108.30;34.25;;;;;;;;;;5075883;28;20049;-66
2022/01/26 09:05:47;;;;;;;117.15;34.65;;;;;;;;;;5075932;28;20136;-66
2022/01/26 09:08:14;;;;;;;121.60;34.58;;;;;;;;;;5058183;28;20083;-66
2022/01/26 09:10:41;;;;;;;117.70;34.45;;;;;;;;;;5074800;28;20107;-66
2022/01/26 09:13:07;;;;;;;119.45;36.58;;;;;;;;;;5075803;28;20087;-67
2022/01/26 09:15:34;;;;;;;122.93;35.97;;;;;;;;;;5074748;28;20044;-66
2022/01/26 09:18:03;;;;;;;114.88;35.08;;;;;;;;;;5057638;28;20128;-67
2022/01/26 09:20:29;;;;;;;125.03;37.28;;;;;;;;;;5075915;28;20047;-66
2022/01/26 09:22:55;;;;;;;116.65;35.10;;;;;;;;;;5074581;28;20123;-66
2022/01/26 09:25:22;;;;;;;124.78;38.45;;;;;;;;;;5057812;28;20091;-66
2022/01/26 09:27:47;;;;;;;125.32;37.92;;;;;;;;;;5073462;28;20051;-67
2022/01/26 09:30:13;;;;;;;132.05;39.33;;;;;;;;;;5074342;28;20040;-67
2022/01/26 09:32:40;;;;;;;134.85;40.17;;;;;;;;;;5074072;28;20085;-67
2022/01/26 09:35:07;;;;;;;128.55;40.33;;;;;;;;;;5074011;28;20045;-67
2022/01/26 09:37:33;;;;;;;133.32;42.35;;;;;;;;;;5075593;28;20098;-67
2022/01/26 09:39:59;;;;;;;126.60;39.30;;;;;;;;;;5074360;28;20044;-67
2022/01/26 09:42:25;;;;;;;130.70;40.28;;;;;;;;;;5073960;28;20052;-67
2022/01/26 09:44:51;;;;;;;134.40;41.85;;;;;;;;;;5073574;28;20494;-66
2022/01/26 09:47:17;;;;;;;134.45;41.72;;;;;;;;;;5057141;28;20052;-68
2022/01/26 09:49:44;;;;;;;136.27;40.92;;;;;;;;;;5057411;28;20102;-66
2022/01/26 09:52:20;;;;;;;134.52;41.42;;;;;;;;;;5073876;28;20097;-66
2022/01/26 09:54:47;;;;;;;142.95;42.88;;;;;;;;;;5075195;28;20037;-66
2022/01/26 09:57:13;;;;;;;143.45;46.53;;;;;;;;;;5056996;28;20048;-66
2022/01/26 09:59:39;;;;;;;142.60;43.00;;;;;;;;;;5074811;28;20041;-66
2022/01/26 10:02:05;;;;;;;154.45;44.63;;;;;;;;;;5073524;28;20178;-66
2022/01/26 10:04:35;;;;;;;150.80;45.80;;;;;;;;;;5073399;28;20051;-67
2022/01/26 10:07:41;;;;;;;146.27;44.22;;;;;;;;;;5074812;28;20106;-67
2022/01/26 10:15:41;;;;;;;141.63;42.75;;;;;;;;;;5074462;28;20048;-65
2022/01/26 10:18:08;;;;;;;170.73;47.42;;;;;;;;;;5084798;28;20071;-67
2022/01/26 10:20:51;;;;;;;176.90;49.70;;;;;;;;;;5080625;28;20501;-65
2022/01/26 10:23:21;;;;;;;144.27;44.10;;;;;;;;;;5079716;28;20110;-66
2022/01/26 10:26:01;;;;;;;147.23;44.58;;;;;;;;;;5079203;28;20059;-67
2022/01/26 10:28:27;;;;;;;150.05;43.42;;;;;;;;;;5056751;28;20048;-66
2022/01/26 10:30:53;;;;;;;155.38;43.70;;;;;;;;;;5074133;28;20055;-66
2022/01/26 10:33:19;;;;;;;138.77;43.65;;;;;;;;;;5073261;28;20149;-65
2022/01/26 10:35:46;;;;;;;147.60;45.10;;;;;;;;;;5073276;28;20063;-66
2022/01/26 10:38:14;;;;;;;144.52;44.38;;;;;;;;;;5074360;28;20048;-65
2022/01/26 10:40:40;;;;;;;141.13;43.55;;;;;;;;;;5073392;28;20082;-65
2022/01/26 10:43:13;;;;;;;231.25;60.45;;;;;;;;;;5073130;28;20080;-65
2022/01/26 10:45:54;;;;;;;160.88;47.15;;;;;;;;;;5074316;28;20556;-65
2022/01/26 10:48:31;;;;;;;140.27;43.90;;;;;;;;;;5072854;28;20051;-65
2022/01/26 10:53:47;;;;;;;139.80;43.38;;;;;;;;;;5073281;28;20052;-65
2022/01/26 10:56:13;;;;;;;152.02;47.70;;;;;;;;;;5073130;28;20052;-65
2022/01/26 10:58:40;;;;;;;216.15;53.83;;;;;;;;;;5074042;28;20479;-65
2022/01/26 11:01:06;;;;;;;162.30;45.63;;;;;;;;;;5072720;28;20080;-65
2022/01/26 11:03:33;;;;;;;141.38;42.88;;;;;;;;;;5073563;28;20040;-65
2022/01/26 11:06:00;;;;;;;141.60;42.80;;;;;;;;;;5074180;28;20045;-65
2022/01/26 11:08:26;;;;;;;131.85;40.92;;;;;;;;;;5073823;28;20050;-66
2022/01/26 11:10:52;;;;;;;133.70;40.55;;;;;;;;;;5072343;28;20082;-66
2022/01/26 11:13:29;;;;;;;144.57;43.42;;;;;;;;;;5055804;28;20082;-66
2022/01/26 11:16:06;;;;;;;129.20;40.70;;;;;;;;;;5072553;28;20044;-68
2022/01/26 11:18:33;;;;;;;126.15;39.45;;;;;;;;;;5072058;28;20056;-68
2022/01/26 11:20:59;;;;;;;126.75;40.47;;;;;;;;;;5073433;28;20063;-68
2022/01/26 11:23:36;;;;;;;122.43;39.78;;;;;;;;;;5073453;28;20128;-68
2022/01/26 11:26:02;;;;;;;120.35;38.72;;;;;;;;;;5071794;28;20405;-68
2022/01/26 11:28:28;;;;;;;123.53;38.45;;;;;;;;;;5337991;22;20170;-68
2022/01/26 11:30:58;;;;;;;124.20;38.55;;;;;;;;;;5101305;22;20052;-69
2022/01/26 11:33:27;;;;;;;131.52;39.00;;;;;;;;;;5091975;28;20419;-68
2022/01/26 11:35:53;;;;;;;115.63;38.25;;;;;;;;;;5074807;28;20044;-68
2022/01/26 11:38:41;;;;;;;122.32;38.25;;;;;;;;;;5089569;28;20044;-68
2022/01/26 11:46:51;;;;;;;140.68;41.90;;;;;;;;;;5083235;28;20048;-68
2022/01/26 11:49:23;;;;;;;117.90;38.63;;;;;;;;;;5071832;28;20048;-68
2022/01/26 11:51:50;;;;;;;119.85;37.08;;;;;;;;;;5072799;28;20127;-69
2022/01/26 11:54:24;;;;;;;116.07;39.35;;;;;;;;;;5072744;28;20057;-68
2022/01/26 11:56:57;;;;;;;119.07;38.42;;;;;;;;;;5072946;28;20051;-68
2022/01/26 11:59:25;;;;;;;110.95;34.70;;;;;;;;;;5263608;22;20061;-68
2022/01/26 12:02:01;;;;;;;113.60;36.40;;;;;;;;;;5085427;22;20080;-67
2022/01/26 12:04:32;;;;;;;111.90;37.58;;;;;;;;;;5072204;28;20036;-67
2022/01/26 12:07:09;;;;;;;107.60;35.05;;;;;;;;;;5075602;28;20044;-67
2022/01/26 12:09:35;;;;;;;112.05;36.13;;;;;;;;;;5057919;28;20490;-68
2022/01/26 12:12:03;;;;;;;105.60;34.20;;;;;;;;;;5074734;28;20048;-68
2022/01/26 12:14:30;;;;;;;101.55;33.72;;;;;;;;;;5057877;28;20097;-68
2022/01/26 12:16:58;;;;;;;105.22;33.78;;;;;;;;;;5057903;28;20059;-68
2022/01/26 12:32:01;;;;;;;101.05;32.17;;;;;;;;;;5092759;28;20055;-69
2022/01/26 12:34:30;;;;;;;104.05;31.17;;;;;;;;;;5074615;28;20096;-68
2022/01/26 12:41:10;;;;;;;100.97;31.63;;;;;;;;;;5072634;28;20484;-69
2022/01/26 12:42:23;;;;;;;92.85;29.80;;;;;;;;;;5054925;28;20059;-70
2022/01/26 12:44:59;;;;;;;92.93;29.08;;;;;;;;;;5037829;28;20399;-68
2022/01/26 12:47:28;;;;;;;97.22;30.33;;;;;;;;;;5054596;28;20133;-68
2022/01/26 12:49:54;;;;;;;95.03;29.83;;;;;;;;;;5054178;28;20110;-67
2022/01/26 12:52:20;;;;;;;93.35;30.05;;;;;;;;;;5054438;28;20131;-67
2022/01/26 12:54:46;;;;;;;80.78;27.30;;;;;;;;;;5054348;28;20075;-68
2022/01/26 12:57:13;;;;;;;89.82;30.10;;;;;;;;;;5037936;28;20056;-68
2022/01/26 12:59:39;;;;;;;93.93;30.23;;;;;;;;;;5038166;28;20121;-68
2022/01/26 13:02:05;;;;;;;97.50;31.20;;;;;;;;;;5037913;28;20075;-68
2022/01/26 13:04:31;;;;;;;89.63;29.85;;;;;;;;;;5058388;28;20094;-68
2022/01/26 13:06:57;;;;;;;81.30;27.73;;;;;;;;;;5058055;28;20131;-68
2022/01/26 13:09:25;;;;;;;83.22;27.50;;;;;;;;;;5061082;28;20491;-68
2022/01/26 13:11:52;;;;;;;89.15;31.13;;;;;;;;;;5095930;28;20050;-68
2022/01/26 13:14:25;;;;;;;86.00;27.55;;;;;;;;;;5061036;28;20449;-69
2022/01/26 13:17:14;;;;;;;93.07;29.10;;;;;;;;;;5078135;28;20079;-68
2022/01/26 13:19:57;;;;;;;93.10;29.38;;;;;;;;;;5078028;28;20403;-68
2022/01/26 13:25:05;;;;;;;83.68;28.50;;;;;;;;;;5077508;28;20048;-68
2022/01/26 13:59:54;;;;;;;88.22;27.83;;;;;;;;;;4935373;29;20047;-68
2022/01/26 14:02:20;;;;;;;91.05;30.35;;;;;;;;;;4919667;29;20056;-68
2022/01/26 14:04:46;;;;;;;89.90;29.38;;;;;;;;;;4949861;28;20055;-68
2022/01/26 14:07:15;;;;;;;;;;;;;;;;;;4974422;28;20046;-69
2022/01/26 14:09:41;;;;;;;93.32;28.17;;;;;;;;;;4976237;28;20321;-68
2022/01/26 14:12:11;;;;;;;94.22;28.83;;;;;;;;;;4996520;28;20140;-69
2022/01/26 14:14:42;;;;;;;87.80;29.70;;;;;;;;;;4996363;28;20128;-68
2022/01/26 14:17:15;;;;;;;96.65;30.23;;;;;;;;;;5023030;28;20048;-68
2022/01/26 14:22:36;;;;;;;99.88;32.83;;;;;;;;;;5094623;28;20446;-68
2022/01/26 14:27:51;;;;;;;92.30;31.33;;;;;;;;;;5076618;28;20047;-68
2022/01/26 14:33:11;;;;;;;89.15;29.70;;;;;;;;;;5076137;28;20189;-68
2022/01/26 14:36:17;;;;;;;90.70;30.80;;;;;;;;;;5076062;28;20127;-69
2022/01/26 14:50:57;;;;;;;93.75;31.23;;;;;;;;;;5075788;28;20059;-68
2022/01/26 15:30:09;;;;;;;95.10;28.95;;;;;;;;;;5075325;28;20052;-70
2022/01/26 15:35:20;;;;;;;88.57;27.52;;;;;;;;;;5075670;28;20515;-70
2022/01/26 15:41:04;;;;;;;84.13;26.92;;;;;;;;;;5055405;28;20399;-70
2022/01/26 16:05:23;;;;;;;85.90;27.88;;;;;;;;;;4975243;28;20434;-70
2022/01/26 16:08:11;;;;;;;89.53;27.92;;;;;;;;;;4975269;28;20469;-68
2022/01/26 16:21:22;;;;;;;82.63;27.70;;;;;;;;;;5054952;28;20123;-68
2022/01/26 16:54:06;;;;;;;77.28;26.63;;;;;;;;;;5057632;28;20071;-69
2022/01/26 17:27:06;;;;;;;85.55;34.13;;;;;;;;;;5095797;28;20052;-69
2022/01/26 18:17:41;;;;;;;85.47;30.17;;;;;;;;;;5076788;28;20139;-67
2022/01/26 18:49:33;;;;;;;251.73;139.02;;;;;;;;;;5094253;28;20237;-70
2022/01/26 18:52:00;;;;;;;185.88;109.47;;;;;;;;;;5094293;28;20040;-69
2022/01/26 18:54:27;;;;;;;98.88;41.95;;;;;;;;;;5094126;28;20449;-69
2022/01/26 18:56:54;;;;;;;93.75;43.55;;;;;;;;;;5075866;28;20044;-68
2022/01/26 18:59:22;;;;;;;77.57;27.13;;;;;;;;;;5075525;28;20514;-69
2022/01/26 19:01:48;;;;;;;78.07;28.55;;;;;;;;;;5074797;28;20064;-68
2022/01/26 19:04:16;;;;;;;87.40;34.83;;;;;;;;;;5058852;28;20087;-68
2022/01/26 19:06:49;;;;;;;96.60;41.30;;;;;;;;;;5059128;28;20100;-68
2022/01/26 19:09:18;;;;;;;110.63;51.88;;;;;;;;;;5059113;28;20044;-68
2022/01/26 19:11:44;;;;;;;93.53;39.08;;;;;;;;;;5059255;28;20067;-68
2022/01/26 19:14:10;;;;;;;67.18;24.60;;;;;;;;;;5075136;28;20040;-68
2022/01/26 19:16:43;;;;;;;89.85;36.45;;;;;;;;;;5075517;28;20123;-67
2022/01/26 19:21:52;;;;;;;81.70;30.83;;;;;;;;;;5075553;28;20052;-68
2022/01/26 19:24:38;;;;;;;77.75;28.27;;;;;;;;;;5093481;28;20056;-68
2022/01/26 19:27:16;;;;;;;78.32;28.23;;;;;;;;;;5093709;28;20499;-70
2022/01/26 19:51:44;;;;;;;78.13;32.13;;;;;;;;;;5011127;28;20046;-69
2022/01/26 19:54:11;;;;;;;76.03;29.42;;;;;;;;;;4978615;28;20061;-69
2022/01/26 19:56:37;;;;;;;84.88;31.13;;;;;;;;;;4994673;28;20085;-69
2022/01/26 19:59:03;;;;;;;81.40;30.38;;;;;;;;;;5011208;28;20038;-70
2022/01/26 20:01:29;;;;;;;79.75;29.80;;;;;;;;;;4978352;28;20517;-69
2022/01/26 20:03:55;;;;;;;76.07;29.50;;;;;;;;;;4994618;28;20652;-69
2022/01/26 20:06:21;;;;;;;81.63;30.65;;;;;;;;;;4978256;28;20129;-69
2022/01/26 20:09:02;;;;;;;78.13;29.92;;;;;;;;;;4978844;28;20085;-70
2022/01/26 20:11:43;;;;;;;75.65;30.05;;;;;;;;;;5011999;28;20509;-68
2022/01/26 20:14:09;;;;;;;75.47;31.08;;;;;;;;;;5015238;28;20050;-68
2022/01/26 20:16:36;;;;;;;80.88;31.08;;;;;;;;;;4983778;28;20065;-69
2022/01/26 20:19:02;;;;;;;81.15;30.63;;;;;;;;;;5015563;28;20049;-70
2022/01/26 20:21:28;;;;;;;64.70;25.88;;;;;;;;;;4982722;28;20065;-69
2022/01/26 20:23:55;;;;;;;76.47;29.70;;;;;;;;;;5014969;28;20536;-69
2022/01/26 20:26:21;;;;;;;78.45;29.95;;;;;;;;;;5008535;28;20102;-68
2022/01/26 20:28:47;;;;;;;73.63;29.75;;;;;;;;;;5076325;28;20052;-68
2022/01/26 20:31:19;;;;;;;74.00;31.15;;;;;;;;;;5079088;28;20052;-68
2022/01/26 20:33:46;;;;;;;79.72;30.95;;;;;;;;;;5062169;28;20040;-68
2022/01/26 20:36:13;;;;;;;79.20;31.42;;;;;;;;;;5078681;28;20078;-68
2022/01/26 20:38:39;;;;;;;76.90;31.38;;;;;;;;;;5096932;28;20089;-68
2022/01/26 20:41:05;;;;;;;76.60;29.90;;;;;;;;;;5078349;28;20079;-68
2022/01/26 20:43:32;;;;;;;81.22;31.73;;;;;;;;;;5078323;28;20130;-68
2022/01/26 20:46:00;;;;;;;75.38;30.63;;;;;;;;;;5061662;28;20093;-68
2022/01/26 20:48:26;;;;;;;83.30;31.87;;;;;;;;;;5079562;28;20097;-69
2022/01/26 20:50:53;;;;;;;76.47;31.33;;;;;;;;;;5096940;28;20131;-68
2022/01/26 20:53:19;;;;;;;77.32;32.58;;;;;;;;;;5078204;28;20402;-68
2022/01/26 20:55:45;;;;;;;75.10;29.50;;;;;;;;;;5077857;28;20051;-67
2022/01/26 20:58:11;;;;;;;78.30;31.70;;;;;;;;;;5078224;28;20119;-68
2022/01/26 21:00:37;;;;;;;78.82;33.35;;;;;;;;;;5077853;28;20062;-69
2022/01/26 21:03:03;;;;;;;80.38;33.17;;;;;;;;;;5061091;28;20059;-68
2022/01/26 21:05:29;;;;;;;82.57;33.97;;;;;;;;;;5096266;28;20040;-66
2022/01/26 21:07:56;;;;;;;79.90;32.65;;;;;;;;;;5061078;28;20052;-68
2022/01/26 21:10:22;;;;;;;85.88;33.40;;;;;;;;;;5077816;28;20048;-68